createdAt,value
2022-12-08T00:01:49.891Z,17.96
2022-12-08T00:04:17.346Z,17.66
2022-12-08T00:06:44.555Z,18.21
2022-12-08T00:09:21.298Z,18.17
2022-12-08T00:12:01.686Z,18.67
2022-12-08T00:14:37.424Z,19.08
2022-12-08T00:17:05.550Z,18.34
2022-12-08T00:19:32.892Z,18.14
2022-12-08T00:21:59.702Z,19.03
2022-12-08T00:24:30.605Z,19.13
2022-12-08T00:26:57.559Z,20.09
2022-12-08T00:29:24.598Z,20.27
2022-12-08T00:31:51.414Z,19.85
2022-12-08T00:34:18.422Z,20.05
2022-12-08T00:36:46.618Z,19.54
2022-12-08T00:39:14.433Z,20.33
2022-12-08T00:41:41.591Z,19.96
2022-12-08T00:44:08.423Z,20.58
2022-12-08T00:50:17.375Z,19.66
2022-12-08T00:52:44.649Z,20.16
2022-12-08T00:55:11.529Z,19.87
2022-12-08T00:57:38.285Z,20.66
2022-12-08T01:00:06.115Z,20.88
2022-12-08T01:02:34.073Z,20.38
2022-12-08T01:05:01.120Z,20.54
2022-12-08T01:11:08.692Z,20.86
2022-12-08T01:13:35.701Z,20.94
2022-12-08T01:16:02.790Z,20.91
2022-12-08T01:18:30.569Z,22.02
2022-12-08T01:21:03.379Z,21.60
2022-12-08T01:23:30.141Z,21.69
2022-12-08T01:29:51.481Z,20.27
2022-12-08T01:32:18.245Z,20.30
2022-12-08T01:34:45.202Z,20.54
2022-12-08T01:37:11.977Z,21.13
2022-12-08T01:39:38.796Z,21.06
2022-12-08T01:42:05.542Z,20.78
2022-12-08T01:44:38.665Z,20.91
2022-12-08T01:47:05.775Z,21.25
2022-12-08T01:49:33.482Z,20.92
2022-12-08T01:52:05.964Z,20.84
2022-12-08T01:54:34.794Z,21.37
2022-12-08T01:57:07.614Z,20.61
2022-12-08T01:59:36.580Z,20.06
2022-12-08T02:02:03.548Z,21.11
2022-12-08T02:04:30.493Z,20.56
2022-12-08T02:06:57.403Z,21.50
2022-12-08T02:09:24.137Z,21.58
2022-12-08T02:11:52.205Z,20.70
2022-12-08T02:14:19.296Z,21.07
2022-12-08T02:17:25.060Z,20.64
2022-12-08T02:20:17.644Z,20.84
2022-12-08T02:23:42.931Z,20.65
2022-12-08T02:26:36.948Z,19.91
2022-12-08T02:29:24.924Z,20.14
2022-12-08T02:32:07.368Z,20.49
2022-12-08T02:34:42.045Z,20.56
2022-12-08T02:37:35.357Z,20.80
2022-12-08T02:40:22.164Z,21.11
2022-12-08T02:42:55.368Z,20.67
2022-12-08T02:45:34.678Z,20.97
2022-12-08T02:48:21.311Z,20.80
2022-12-08T02:50:48.039Z,20.62
2022-12-08T02:56:03.489Z,20.35
2022-12-08T02:58:59.010Z,20.98
2022-12-08T03:01:42.250Z,21.49
2022-12-08T03:04:17.499Z,20.19
2022-12-08T03:06:56.304Z,19.74
2022-12-08T03:09:44.793Z,20.09
2022-12-08T03:12:34.304Z,20.47
2022-12-08T03:15:05.773Z,20.23
2022-12-08T03:17:32.849Z,20.19
2022-12-08T03:20:01.687Z,20.59
2022-12-08T03:22:29.324Z,20.19
2022-12-08T03:24:56.038Z,19.81
2022-12-08T03:27:24.985Z,19.99
2022-12-08T03:29:53.179Z,20.58
2022-12-08T03:32:24.083Z,21.09
2022-12-08T03:34:51.360Z,21.36
2022-12-08T03:37:18.541Z,21.16
2022-12-08T03:39:45.252Z,21.10
2022-12-08T03:42:12.796Z,21.19
2022-12-08T03:44:39.507Z,21.98
2022-12-08T03:47:06.220Z,21.23
2022-12-08T03:49:32.936Z,21.52
2022-12-08T03:51:59.984Z,20.63
2022-12-08T03:54:27.180Z,20.73
2022-12-08T03:56:53.957Z,20.91
2022-12-08T03:59:21.006Z,20.74
2022-12-08T04:01:47.904Z,21.07
2022-12-08T04:04:14.649Z,20.80
2022-12-08T04:06:41.736Z,20.44
2022-12-08T04:09:08.464Z,20.66
2022-12-08T04:11:35.372Z,20.95
2022-12-08T04:14:19.920Z,20.35
2022-12-08T04:16:57.216Z,19.54
2022-12-08T04:19:24.288Z,20.43
2022-12-08T04:25:31.696Z,20.68
2022-12-08T04:27:58.780Z,20.48
2022-12-08T04:30:25.499Z,20.54
2022-12-08T04:32:52.278Z,20.34
2022-12-08T04:35:19.323Z,21.71
2022-12-08T04:37:46.104Z,21.20
2022-12-08T04:40:14.215Z,21.89
2022-12-08T04:42:40.936Z,21.64
2022-12-08T04:45:09.733Z,23.00
2022-12-08T04:47:36.448Z,24.49
2022-12-08T04:50:04.433Z,23.22
2022-12-08T04:52:31.516Z,23.45
2022-12-08T04:54:59.385Z,23.96
2022-12-08T04:57:32.216Z,22.37
2022-12-08T04:59:59.063Z,22.33
2022-12-08T05:02:25.961Z,23.24
2022-12-08T05:04:53.286Z,24.43
2022-12-08T05:07:20.799Z,23.58
2022-12-08T05:09:47.517Z,24.29
2022-12-08T05:12:14.258Z,24.69
2022-12-08T05:14:41.291Z,25.06
2022-12-08T05:17:09.817Z,25.13
2022-12-08T05:19:36.777Z,24.43
2022-12-08T05:22:03.573Z,24.42
2022-12-08T05:24:30.284Z,24.80
2022-12-08T05:26:57.624Z,25.40
2022-12-08T05:29:25.036Z,25.84
2022-12-08T05:31:51.806Z,24.63
2022-12-08T05:34:18.928Z,25.25
2022-12-08T05:36:45.629Z,24.84
2022-12-08T05:39:13.219Z,25.31
2022-12-08T05:41:40.611Z,26.19
2022-12-08T05:44:07.428Z,25.77
2022-12-08T05:46:34.649Z,24.93
2022-12-08T05:49:01.742Z,26.16
2022-12-08T05:51:28.559Z,25.41
2022-12-08T05:53:55.440Z,25.09
2022-12-08T05:56:22.417Z,24.66
2022-12-08T05:58:49.210Z,24.09
2022-12-08T06:01:27.280Z,25.07
2022-12-08T06:03:54.201Z,25.54
2022-12-08T06:06:20.918Z,26.42
2022-12-08T06:08:49.417Z,26.69
2022-12-08T06:11:24.081Z,25.49
2022-12-08T06:14:27.928Z,25.02
2022-12-08T06:16:54.905Z,25.60
2022-12-08T06:19:21.724Z,26.41
2022-12-08T06:21:48.825Z,26.65
2022-12-08T06:24:16.071Z,26.73
2022-12-08T06:26:43.102Z,25.76
2022-12-08T06:29:11.788Z,25.57
2022-12-08T06:31:39.046Z,26.41
2022-12-08T06:34:05.852Z,25.44
2022-12-08T06:36:32.775Z,25.76
2022-12-08T06:38:59.487Z,24.86
2022-12-08T06:41:26.282Z,25.38
2022-12-08T06:43:56.053Z,25.25
2022-12-08T06:46:23.278Z,26.40
2022-12-08T06:48:50.207Z,25.77
2022-12-08T06:51:18.853Z,25.35
2022-12-08T06:53:45.923Z,25.28
2022-12-08T06:56:13.067Z,25.68
2022-12-08T06:58:39.808Z,26.67
2022-12-08T07:01:10.751Z,26.81
2022-12-08T07:03:37.983Z,27.11
2022-12-08T07:06:05.029Z,26.20
2022-12-08T07:08:32.720Z,26.70
2022-12-08T07:10:59.666Z,26.18
2022-12-08T07:13:26.848Z,25.65
2022-12-08T07:15:53.629Z,25.05
2022-12-08T07:18:20.640Z,25.10
2022-12-08T07:20:47.559Z,25.62
2022-12-08T07:23:14.649Z,24.77
2022-12-08T07:25:41.451Z,24.86
2022-12-08T07:28:09.593Z,25.94
2022-12-08T07:30:36.445Z,25.60
2022-12-08T07:33:04.949Z,25.21
2022-12-08T07:35:32.827Z,27.25
2022-12-08T07:38:02.827Z,26.48
2022-12-08T07:40:29.895Z,27.09
2022-12-08T07:42:56.662Z,27.46
2022-12-08T07:45:28.301Z,26.99
2022-12-08T07:47:58.051Z,26.67
2022-12-08T07:50:25.373Z,26.55
2022-12-08T07:52:54.236Z,25.92
2022-12-08T07:55:20.984Z,26.27
2022-12-08T07:57:47.884Z,26.19
2022-12-08T08:00:15.106Z,25.63
2022-12-08T08:02:42.341Z,25.94
2022-12-08T08:05:09.790Z,24.89
2022-12-08T08:07:36.829Z,25.95
2022-12-08T08:10:04.575Z,26.36
2022-12-08T08:12:32.515Z,25.79
2022-12-08T08:15:00.371Z,26.59
2022-12-08T08:17:27.833Z,27.16
2022-12-08T08:19:54.885Z,26.05
2022-12-08T08:22:21.956Z,27.24
2022-12-08T08:24:48.687Z,26.44
2022-12-08T08:27:15.521Z,27.23
2022-12-08T08:29:43.325Z,26.91
2022-12-08T08:32:10.038Z,27.60
2022-12-08T08:34:36.780Z,27.04
2022-12-08T08:37:03.856Z,26.87
2022-12-08T08:39:30.970Z,27.23
2022-12-08T08:41:57.736Z,27.00
2022-12-08T08:44:24.817Z,27.08
2022-12-08T08:46:51.586Z,27.09
2022-12-08T08:49:18.477Z,26.87
2022-12-08T08:51:45.210Z,26.47
2022-12-08T08:54:12.084Z,25.89
2022-12-08T08:56:38.820Z,25.43
2022-12-08T08:59:05.843Z,24.80
2022-12-08T09:01:33.601Z,25.81
2022-12-08T09:04:00.400Z,25.94
2022-12-08T09:06:27.304Z,24.91
2022-12-08T09:08:56.993Z,23.06
2022-12-08T09:11:24.245Z,22.30
2022-12-08T09:13:51.492Z,20.50
2022-12-08T09:16:19.852Z,20.06
2022-12-08T09:18:46.928Z,19.47
2022-12-08T09:21:14.743Z,17.82
2022-12-08T09:23:44.465Z,17.04
2022-12-08T09:26:11.656Z,16.79
2022-12-08T09:28:38.469Z,16.40
2022-12-08T09:31:05.336Z,16.00
2022-12-08T09:33:32.226Z,16.00
2022-12-08T09:36:03.323Z,15.89
2022-12-08T09:38:30.456Z,16.04
2022-12-08T09:41:00.170Z,15.85
2022-12-08T09:44:07.269Z,15.96
2022-12-08T09:46:37.204Z,16.25
2022-12-08T09:49:04.785Z,15.96
2022-12-08T09:51:36.984Z,17.71
2022-12-08T09:54:10.134Z,19.56
2022-12-08T09:56:37.185Z,20.98
2022-12-08T09:59:23.044Z,21.37
2022-12-08T10:01:52.775Z,21.01
2022-12-08T10:04:31.577Z,20.79
2022-12-08T10:07:35.840Z,20.41
2022-12-08T10:10:04.452Z,18.89
2022-12-08T10:12:37.911Z,19.16
2022-12-08T10:15:49.705Z,18.96
2022-12-08T10:18:36.275Z,19.19
2022-12-08T10:21:24.800Z,20.18
2022-12-08T10:23:53.912Z,20.80
2022-12-08T10:26:21.401Z,20.76
2022-12-08T10:28:48.600Z,22.44
2022-12-08T10:31:39.085Z,21.77
2022-12-08T10:34:35.101Z,21.12
2022-12-08T10:37:02.473Z,20.03
2022-12-08T10:39:42.569Z,19.18
2022-12-08T10:42:15.451Z,19.86
2022-12-08T10:45:17.760Z,20.95
2022-12-08T10:47:45.728Z,21.71
2022-12-08T10:50:34.923Z,22.06
2022-12-08T10:53:07.251Z,21.95
2022-12-08T10:55:44.964Z,21.04
2022-12-08T10:58:30.189Z,21.79
2022-12-08T11:01:28.485Z,21.84
2022-12-08T11:03:56.905Z,22.64
2022-12-08T11:06:33.178Z,22.52
2022-12-08T11:09:05.364Z,23.48
2022-12-08T11:11:55.096Z,23.05
2022-12-08T11:14:33.440Z,23.20
2022-12-08T11:17:06.914Z,22.64
2022-12-08T11:19:37.934Z,21.86
2022-12-08T11:22:42.222Z,22.29
2022-12-08T11:25:22.922Z,21.97
2022-12-08T11:27:50.810Z,22.48
2022-12-08T11:30:23.677Z,21.87
2022-12-08T11:32:56.127Z,22.22
2022-12-08T11:35:29.300Z,21.55
2022-12-08T11:38:08.097Z,22.91
2022-12-08T11:40:46.061Z,22.19
2022-12-08T11:43:39.305Z,22.60
2022-12-08T11:46:14.946Z,22.88
2022-12-08T11:48:54.092Z,23.06
2022-12-08T11:51:39.602Z,22.41
2022-12-08T11:54:22.827Z,22.01
2022-12-08T11:57:03.927Z,22.33
2022-12-08T11:59:44.841Z,23.07
2022-12-08T12:02:31.094Z,21.76
2022-12-08T12:05:39.886Z,22.00
2022-12-08T12:08:30.129Z,22.40
2022-12-08T12:11:06.951Z,22.28
2022-12-08T12:14:20.113Z,22.51
2022-12-08T12:17:05.723Z,22.61
2022-12-08T12:19:37.743Z,22.53
2022-12-08T12:22:15.754Z,22.00
2022-12-08T12:24:44.328Z,22.23
2022-12-08T12:27:17.005Z,21.35
2022-12-08T12:29:53.983Z,21.70
2022-12-08T12:32:22.889Z,21.24
2022-12-08T12:34:57.709Z,22.30
2022-12-08T12:37:25.704Z,22.39
2022-12-08T12:39:52.348Z,22.18
2022-12-08T12:42:36.845Z,22.88
2022-12-08T12:45:16.035Z,23.05
2022-12-08T12:47:56.924Z,22.60
2022-12-08T12:50:32.797Z,22.31
2022-12-08T12:53:12.300Z,22.43
2022-12-08T12:55:46.621Z,22.82
2022-12-08T12:58:39.956Z,22.66
2022-12-08T13:01:34.780Z,21.93
2022-12-08T13:04:08.569Z,22.33
2022-12-08T13:06:41.308Z,21.91
2022-12-08T13:09:42.771Z,22.60
2022-12-08T13:12:19.635Z,21.82
2022-12-08T13:14:47.228Z,21.87
2022-12-08T13:17:17.493Z,21.64
2022-12-08T13:19:48.824Z,20.68
2022-12-08T13:22:55.831Z,21.22
2022-12-08T13:25:47.116Z,20.99
2022-12-08T13:28:30.917Z,20.71
2022-12-08T13:30:59.347Z,21.12
2022-12-08T13:33:29.021Z,21.42
2022-12-08T13:36:13.349Z,20.85
2022-12-08T13:38:40.409Z,20.72
2022-12-08T13:41:13.530Z,20.33
2022-12-08T13:44:24.783Z,20.26
2022-12-08T13:47:31.639Z,19.93
2022-12-08T13:58:36.658Z,19.82
2022-12-08T14:01:19.412Z,18.72
2022-12-08T14:04:28.513Z,18.79
2022-12-08T14:06:40.532Z,18.76
2022-12-08T14:09:11.351Z,19.23
2022-12-08T14:11:40.047Z,18.39
2022-12-08T14:14:14.527Z,19.05
2022-12-08T14:17:04.430Z,18.29
2022-12-08T14:19:34.610Z,19.61
2022-12-08T14:22:17.456Z,18.75
2022-12-08T14:24:45.401Z,18.81
2022-12-08T14:27:15.850Z,18.84
2022-12-08T14:29:54.161Z,18.98
2022-12-08T14:32:34.358Z,19.52
2022-12-08T14:35:35.801Z,19.91
2022-12-08T14:38:09.944Z,20.19
2022-12-08T14:40:44.911Z,19.73
2022-12-08T14:43:20.307Z,19.55
2022-12-08T14:46:01.173Z,18.86
2022-12-08T14:48:48.051Z,19.04
2022-12-08T14:51:27.602Z,19.69
2022-12-08T14:54:23.468Z,19.07
2022-12-08T14:56:54.888Z,19.49
2022-12-08T14:59:31.174Z,19.36
2022-12-08T15:02:25.209Z,19.47
2022-12-08T15:05:06.193Z,19.47
2022-12-08T15:07:50.697Z,18.82
2022-12-08T15:10:23.208Z,19.82
2022-12-08T15:13:11.514Z,20.43
2022-12-08T15:15:51.731Z,20.20
2022-12-08T15:18:37.162Z,19.86
2022-12-08T15:21:08.720Z,19.63
2022-12-08T15:23:50.285Z,19.68
2022-12-08T15:26:24.331Z,19.74
2022-12-08T15:28:51.582Z,19.85
2022-12-08T15:31:19.094Z,19.78
2022-12-08T15:33:46.336Z,19.99
2022-12-08T15:36:18.585Z,20.09
2022-12-08T15:38:45.624Z,20.25
2022-12-08T15:41:15.530Z,21.12
2022-12-08T15:43:42.961Z,22.51
2022-12-08T15:46:10.086Z,22.80
2022-12-08T15:48:37.201Z,20.70
2022-12-08T15:51:04.267Z,20.28
2022-12-08T15:53:31.320Z,20.85
2022-12-08T15:56:29.150Z,19.87
2022-12-08T15:58:55.200Z,19.82
2022-12-08T16:01:28.599Z,20.23
2022-12-08T16:04:27.928Z,20.57
2022-12-08T16:09:39.669Z,20.88
2022-12-08T16:12:26.052Z,20.54
2022-12-08T16:17:41.246Z,20.48
2022-12-08T16:20:15.245Z,20.25
2022-12-08T16:23:08.029Z,21.83
2022-12-08T16:25:52.758Z,20.72
2022-12-08T16:28:52.311Z,20.94
2022-12-08T16:31:10.270Z,21.55
2022-12-08T16:33:40.796Z,20.25
2022-12-08T16:36:09.265Z,21.07
2022-12-08T16:38:36.142Z,20.83
2022-12-08T16:41:13.684Z,20.45
2022-12-08T16:43:40.506Z,20.67
2022-12-08T16:46:07.633Z,24.18
2022-12-08T16:48:34.746Z,24.27
2022-12-08T16:51:01.788Z,27.54
2022-12-08T16:53:29.566Z,25.30
2022-12-08T16:55:57.889Z,27.99
2022-12-08T16:58:24.671Z,25.36
2022-12-08T17:00:51.670Z,24.00
2022-12-08T17:03:22.425Z,22.26
2022-12-08T17:05:49.512Z,22.83
2022-12-08T17:08:16.664Z,23.23
2022-12-08T17:10:43.445Z,23.28
2022-12-08T17:13:11.409Z,22.70
2022-12-08T17:15:39.582Z,22.60
2022-12-08T17:18:06.681Z,22.83
2022-12-08T17:20:33.732Z,22.52
2022-12-08T17:23:01.313Z,22.19
2022-12-08T17:25:28.525Z,22.12
2022-12-08T17:27:55.414Z,22.43
2022-12-08T17:30:22.463Z,22.30
2022-12-08T17:32:50.293Z,22.99
2022-12-08T17:35:17.326Z,22.78
2022-12-08T17:37:44.059Z,24.18
2022-12-08T17:40:11.134Z,23.54
2022-12-08T17:42:38.465Z,24.20
2022-12-08T17:45:07.745Z,24.24
2022-12-08T17:47:35.457Z,26.65
2022-12-08T17:50:02.675Z,29.08
2022-12-08T17:52:29.889Z,25.40
2022-12-08T17:54:57.293Z,22.62
2022-12-08T17:57:24.461Z,23.01
2022-12-08T17:59:51.397Z,23.46
2022-12-08T18:02:18.663Z,23.81
2022-12-08T18:04:45.468Z,24.19
2022-12-08T18:07:13.406Z,23.77
2022-12-08T18:09:40.540Z,23.36
2022-12-08T18:12:07.749Z,24.05
2022-12-08T18:14:39.735Z,24.50
2022-12-08T18:17:06.850Z,25.11
2022-12-08T18:19:34.049Z,25.07
2022-12-08T18:22:01.112Z,24.84
2022-12-08T18:24:27.889Z,25.15
2022-12-08T18:26:55.149Z,25.71
2022-12-08T18:29:26.973Z,25.72
2022-12-08T18:31:54.042Z,24.56
2022-12-08T18:34:26.127Z,25.14
2022-12-08T18:36:53.162Z,24.56
2022-12-08T18:39:25.855Z,24.64
2022-12-08T18:41:52.882Z,25.60
2022-12-08T18:44:20.125Z,26.00
2022-12-08T18:46:48.086Z,26.26
2022-12-08T18:49:15.845Z,26.34
2022-12-08T18:51:43.356Z,27.43
2022-12-08T18:54:10.918Z,37.83
2022-12-08T18:56:39.202Z,36.09
2022-12-08T18:59:08.239Z,31.99
2022-12-08T19:01:36.014Z,29.48
2022-12-08T19:04:27.269Z,27.08
2022-12-08T19:06:52.067Z,25.56
2022-12-08T19:09:19.114Z,25.24
2022-12-08T19:11:46.305Z,26.25
2022-12-08T19:14:13.401Z,24.36
2022-12-08T19:16:41.504Z,24.00
2022-12-08T19:19:08.263Z,24.34
2022-12-08T19:21:36.894Z,24.32
2022-12-08T19:24:07.828Z,24.23
2022-12-08T19:26:35.652Z,24.16
2022-12-08T19:29:02.732Z,24.18
2022-12-08T19:31:29.888Z,23.79
2022-12-08T19:33:56.837Z,23.62
2022-12-08T19:36:23.928Z,22.94
2022-12-08T19:38:51.870Z,23.19
2022-12-08T19:41:18.881Z,23.70
2022-12-08T19:43:45.878Z,22.92
2022-12-08T19:46:12.761Z,21.99
2022-12-08T19:48:40.013Z,25.18
2022-12-08T19:51:07.112Z,27.03
2022-12-08T19:53:34.135Z,24.32
2022-12-08T19:56:01.852Z,25.90
2022-12-08T19:58:33.650Z,26.77
2022-12-08T20:01:01.823Z,22.20
2022-12-08T20:03:29.898Z,22.52
2022-12-08T20:05:57.047Z,22.76
2022-12-08T20:08:25.593Z,22.15
2022-12-08T20:10:52.748Z,22.54
2022-12-08T20:13:24.751Z,23.07
2022-12-08T20:15:52.282Z,23.32
2022-12-08T20:18:19.685Z,22.96
2022-12-08T20:20:46.573Z,22.86
2022-12-08T20:23:13.828Z,22.36
2022-12-08T20:25:42.876Z,22.58
2022-12-08T20:28:09.697Z,22.91
2022-12-08T20:30:42.930Z,23.57
2022-12-08T20:33:12.374Z,24.26
2022-12-08T20:35:40.019Z,23.61
2022-12-08T20:38:06.793Z,24.50
2022-12-08T20:40:33.698Z,26.12
2022-12-08T20:43:00.432Z,28.15
2022-12-08T20:45:27.223Z,27.64
2022-12-08T20:47:54.412Z,27.12
2022-12-08T20:50:21.283Z,27.72
2022-12-08T20:52:49.318Z,28.47
2022-12-08T20:55:16.596Z,27.93
2022-12-08T20:57:43.874Z,27.76
2022-12-08T21:00:12.397Z,28.35
2022-12-08T21:02:45.144Z,28.87
2022-12-08T21:05:14.774Z,29.18
2022-12-08T21:07:41.802Z,28.03
2022-12-08T21:10:10.616Z,28.81
2022-12-08T21:12:38.312Z,28.65
2022-12-08T21:15:10.789Z,30.36
2022-12-08T21:17:38.260Z,32.78
2022-12-08T21:20:10.892Z,32.54
2022-12-08T21:22:39.334Z,30.63
2022-12-08T21:25:07.626Z,30.79
2022-12-08T21:27:34.398Z,30.39
2022-12-08T21:30:02.863Z,29.54
2022-12-08T21:32:34.811Z,31.78
2022-12-08T21:35:02.335Z,30.45
2022-12-08T21:37:29.522Z,28.08
2022-12-08T21:39:56.630Z,28.19
2022-12-08T21:42:24.966Z,28.30
2022-12-08T21:44:59.807Z,27.62
2022-12-08T21:47:27.065Z,27.73
2022-12-08T21:49:56.688Z,28.62
2022-12-08T21:52:26.989Z,28.05
2022-12-08T21:54:53.891Z,27.05
2022-12-08T21:57:21.021Z,27.71
2022-12-08T21:59:50.906Z,29.67
2022-12-08T22:02:22.225Z,28.65
2022-12-08T22:04:50.564Z,27.70
2022-12-08T22:07:17.511Z,28.04
2022-12-08T22:09:44.739Z,28.57
2022-12-08T22:12:12.215Z,27.92
2022-12-08T22:14:39.949Z,28.24
2022-12-08T22:17:07.882Z,29.34
2022-12-08T22:19:35.484Z,28.84
2022-12-08T22:22:07.273Z,29.11
2022-12-08T22:24:34.521Z,30.53
2022-12-08T22:27:02.389Z,30.07
2022-12-08T22:29:29.801Z,30.05
2022-12-08T22:31:57.575Z,29.86
2022-12-08T22:34:29.554Z,29.36
2022-12-08T22:37:01.716Z,29.99
2022-12-08T22:39:33.401Z,29.26
2022-12-08T22:42:03.345Z,27.80
2022-12-08T22:44:31.132Z,28.82
2022-12-08T22:46:58.293Z,30.46
2022-12-08T22:49:28.254Z,29.65
2022-12-08T22:51:55.363Z,30.06
2022-12-08T22:54:22.174Z,29.12
2022-12-08T22:56:48.915Z,28.82
2022-12-08T22:59:16.082Z,29.66
2022-12-08T23:01:43.353Z,29.97
2022-12-08T23:04:18.419Z,30.64
2022-12-08T23:06:45.805Z,31.72
2022-12-08T23:09:13.983Z,30.77
2022-12-08T23:11:46.762Z,31.29
2022-12-08T23:14:16.043Z,31.45
2022-12-08T23:16:48.505Z,30.52
2022-12-08T23:19:15.755Z,30.38
2022-12-08T23:21:43.149Z,30.74
2022-12-08T23:24:12.917Z,31.85
2022-12-08T23:26:40.051Z,31.36
2022-12-08T23:29:07.284Z,31.52
2022-12-08T23:31:34.129Z,30.74
2022-12-08T23:34:02.569Z,29.89
2022-12-08T23:36:32.977Z,29.19
2022-12-08T23:39:00.226Z,29.31
2022-12-08T23:41:27.562Z,29.97
2022-12-08T23:43:54.995Z,29.23
2022-12-08T23:46:22.633Z,29.95
2022-12-08T23:48:50.643Z,30.35
2022-12-08T23:51:17.756Z,30.28
2022-12-08T23:53:47.504Z,29.28
2022-12-08T23:56:15.674Z,29.81
2022-12-08T23:58:43.643Z,30.08
